sensor_id;sensor_type;location;lat;lon;timestamp;temperature;humidity
563;DHT22;266;49.514;8.294;2023-06-14T00:00:01;17.10;99.90
563;DHT22;266;49.514;8.294;2023-06-14T00:02:31;17.10;99.90
563;DHT22;266;49.514;8.294;2023-06-14T00:04:59;17.20;99.90
563;DHT22;266;49.514;8.294;2023-06-14T00:07:35;17.10;99.90
563;DHT22;266;49.514;8.294;2023-06-14T00:10:05;17.20;99.90
563;DHT22;266;49.514;8.294;2023-06-14T00:12:33;17.10;99.90
563;DHT22;266;49.514;8.294;2023-06-14T00:15:02;17.10;99.90
563;DHT22;266;49.514;8.294;2023-06-14T00:17:30;17.10;99.90
563;DHT22;266;49.514;8.294;2023-06-14T00:19:58;17.10;99.90
563;DHT22;266;49.514;8.294;2023-06-14T00:22:27;17.00;99.90
563;DHT22;266;49.514;8.294;2023-06-14T00:24:59;17.00;99.90
563;DHT22;266;49.514;8.294;2023-06-14T00:27:41;17.00;99.90
563;DHT22;266;49.514;8.294;2023-06-14T00:30:09;17.00;99.90
563;DHT22;266;49.514;8.294;2023-06-14T00:32:38;16.90;99.90
563;DHT22;266;49.514;8.294;2023-06-14T00:35:06;16.90;99.90
563;DHT22;266;49.514;8.294;2023-06-14T00:37:34;16.90;99.90
563;DHT22;266;49.514;8.294;2023-06-14T00:40:05;16.90;99.90
563;DHT22;266;49.514;8.294;2023-06-14T00:42:33;16.80;99.90
563;DHT22;266;49.514;8.294;2023-06-14T00:45:01;16.80;99.90
563;DHT22;266;49.514;8.294;2023-06-14T00:47:29;16.70;99.90
563;DHT22;266;49.514;8.294;2023-06-14T00:49:57;16.70;99.90
563;DHT22;266;49.514;8.294;2023-06-14T00:52:26;16.60;99.90
563;DHT22;266;49.514;8.294;2023-06-14T00:54:54;16.60;99.90
563;DHT22;266;49.514;8.294;2023-06-14T00:57:24;16.60;99.90
563;DHT22;266;49.514;8.294;2023-06-14T00:59:52;16.50;99.90
563;DHT22;266;49.514;8.294;2023-06-14T01:02:21;16.50;99.90
563;DHT22;266;49.514;8.294;2023-06-14T01:04:51;16.40;99.90
563;DHT22;266;49.514;8.294;2023-06-14T01:07:28;16.40;99.90
563;DHT22;266;49.514;8.294;2023-06-14T01:10:17;16.30;99.90
563;DHT22;266;49.514;8.294;2023-06-14T01:12:58;16.30;99.90
563;DHT22;266;49.514;8.294;2023-06-14T01:15:31;16.20;99.90
563;DHT22;266;49.514;8.294;2023-06-14T01:17:59;16.20;99.90
563;DHT22;266;49.514;8.294;2023-06-14T01:20:32;16.20;99.90
563;DHT22;266;49.514;8.294;2023-06-14T01:23:05;16.20;99.90
563;DHT22;266;49.514;8.294;2023-06-14T01:25:33;16.10;99.90
563;DHT22;266;49.514;8.294;2023-06-14T01:28:05;16.10;99.90
563;DHT22;266;49.514;8.294;2023-06-14T01:30:38;16.10;99.90
563;DHT22;266;49.514;8.294;2023-06-14T01:33:12;16.00;99.90
563;DHT22;266;49.514;8.294;2023-06-14T01:35:43;16.00;99.90
563;DHT22;266;49.514;8.294;2023-06-14T01:38:13;16.00;99.90
563;DHT22;266;49.514;8.294;2023-06-14T01:40:43;16.00;99.90
563;DHT22;266;49.514;8.294;2023-06-14T01:43:13;16.00;99.90
563;DHT22;266;49.514;8.294;2023-06-14T01:45:42;16.00;99.90
563;DHT22;266;49.514;8.294;2023-06-14T01:48:12;16.00;99.90
563;DHT22;266;49.514;8.294;2023-06-14T01:50:40;16.00;99.90
563;DHT22;266;49.514;8.294;2023-06-14T01:53:08;16.00;99.90
563;DHT22;266;49.514;8.294;2023-06-14T01:55:38;16.00;99.90
563;DHT22;266;49.514;8.294;2023-06-14T01:58:10;16.00;99.90
563;DHT22;266;49.514;8.294;2023-06-14T02:00:38;16.00;99.90
563;DHT22;266;49.514;8.294;2023-06-14T02:03:07;16.00;99.90
563;DHT22;266;49.514;8.294;2023-06-14T02:05:35;16.00;99.90
563;DHT22;266;49.514;8.294;2023-06-14T02:08:05;15.90;99.90
563;DHT22;266;49.514;8.294;2023-06-14T02:10:33;16.00;99.90
563;DHT22;266;49.514;8.294;2023-06-14T02:13:04;15.90;99.90
563;DHT22;266;49.514;8.294;2023-06-14T02:15:32;15.90;99.90
563;DHT22;266;49.514;8.294;2023-06-14T02:18:02;15.90;99.90
563;DHT22;266;49.514;8.294;2023-06-14T02:20:30;15.80;99.90
563;DHT22;266;49.514;8.294;2023-06-14T02:22:59;15.80;99.90
563;DHT22;266;49.514;8.294;2023-06-14T02:25:27;15.80;99.90
563;DHT22;266;49.514;8.294;2023-06-14T02:27:55;15.80;99.90
563;DHT22;266;49.514;8.294;2023-06-14T02:30:25;15.70;99.90
563;DHT22;266;49.514;8.294;2023-06-14T02:32:52;15.70;99.90
563;DHT22;266;49.514;8.294;2023-06-14T02:35:20;15.60;99.90
563;DHT22;266;49.514;8.294;2023-06-14T02:37:51;15.60;99.90
563;DHT22;266;49.514;8.294;2023-06-14T02:40:19;15.60;99.90
563;DHT22;266;49.514;8.294;2023-06-14T02:42:47;15.60;99.90
563;DHT22;266;49.514;8.294;2023-06-14T02:45:15;15.60;99.90
563;DHT22;266;49.514;8.294;2023-06-14T02:47:45;15.60;99.90
563;DHT22;266;49.514;8.294;2023-06-14T02:50:13;15.60;99.90
563;DHT22;266;49.514;8.294;2023-06-14T02:52:43;15.60;99.90
563;DHT22;266;49.514;8.294;2023-06-14T02:55:12;15.50;99.90
563;DHT22;266;49.514;8.294;2023-06-14T02:57:40;15.50;99.90
563;DHT22;266;49.514;8.294;2023-06-14T03:00:09;15.50;99.90
563;DHT22;266;49.514;8.294;2023-06-14T03:02:41;15.50;99.90
563;DHT22;266;49.514;8.294;2023-06-14T03:05:11;15.50;99.90
563;DHT22;266;49.514;8.294;2023-06-14T03:07:39;15.50;99.90
563;DHT22;266;49.514;8.294;2023-06-14T03:10:08;15.50;99.90
563;DHT22;266;49.514;8.294;2023-06-14T03:12:36;15.50;99.90
563;DHT22;266;49.514;8.294;2023-06-14T03:15:05;15.50;99.90
563;DHT22;266;49.514;8.294;2023-06-14T03:17:33;15.50;99.90
563;DHT22;266;49.514;8.294;2023-06-14T03:20:02;15.50;99.90
563;DHT22;266;49.514;8.294;2023-06-14T03:22:34;15.40;99.90
563;DHT22;266;49.514;8.294;2023-06-14T03:25:03;15.40;99.90
563;DHT22;266;49.514;8.294;2023-06-14T03:27:31;15.40;99.90
563;DHT22;266;49.514;8.294;2023-06-14T03:29:59;15.40;99.90
563;DHT22;266;49.514;8.294;2023-06-14T03:32:28;15.40;99.90
563;DHT22;266;49.514;8.294;2023-06-14T03:35:00;15.40;99.90
563;DHT22;266;49.514;8.294;2023-06-14T03:37:28;15.40;99.90
563;DHT22;266;49.514;8.294;2023-06-14T03:39:57;15.40;99.90
563;DHT22;266;49.514;8.294;2023-06-14T03:42:25;15.40;99.90
563;DHT22;266;49.514;8.294;2023-06-14T03:44:53;15.40;99.90
563;DHT22;266;49.514;8.294;2023-06-14T03:47:21;15.40;99.90
563;DHT22;266;49.514;8.294;2023-06-14T03:49:49;15.40;99.90
563;DHT22;266;49.514;8.294;2023-06-14T03:52:17;15.40;99.90
563;DHT22;266;49.514;8.294;2023-06-14T03:54:45;15.30;99.90
563;DHT22;266;49.514;8.294;2023-06-14T03:57:34;15.30;99.90
563;DHT22;266;49.514;8.294;2023-06-14T04:00:03;15.30;99.90
563;DHT22;266;49.514;8.294;2023-06-14T04:02:32;15.30;99.90
563;DHT22;266;49.514;8.294;2023-06-14T04:05:00;15.30;99.90
563;DHT22;266;49.514;8.294;2023-06-14T04:07:30;15.30;99.90
563;DHT22;266;49.514;8.294;2023-06-14T04:09:58;15.30;99.90
563;DHT22;266;49.514;8.294;2023-06-14T04:12:26;15.30;99.90
563;DHT22;266;49.514;8.294;2023-06-14T04:14:55;15.30;99.90
563;DHT22;266;49.514;8.294;2023-06-14T04:17:37;15.40;99.90
563;DHT22;266;49.514;8.294;2023-06-14T04:20:06;15.40;99.90
563;DHT22;266;49.514;8.294;2023-06-14T04:22:36;15.40;99.90
563;DHT22;266;49.514;8.294;2023-06-14T04:25:05;15.40;99.90
563;DHT22;266;49.514;8.294;2023-06-14T04:27:33;15.50;99.90
563;DHT22;266;49.514;8.294;2023-06-14T04:30:05;15.50;99.90
563;DHT22;266;49.514;8.294;2023-06-14T04:32:34;15.50;99.90
563;DHT22;266;49.514;8.294;2023-06-14T04:35:07;15.50;99.90
563;DHT22;266;49.514;8.294;2023-06-14T04:37:35;15.60;99.90
563;DHT22;266;49.514;8.294;2023-06-14T04:40:08;15.60;99.90
563;DHT22;266;49.514;8.294;2023-06-14T04:42:38;15.60;99.90
563;DHT22;266;49.514;8.294;2023-06-14T04:45:09;15.60;99.90
563;DHT22;266;49.514;8.294;2023-06-14T04:47:37;15.70;99.90
563;DHT22;266;49.514;8.294;2023-06-14T04:50:06;15.70;99.90
563;DHT22;266;49.514;8.294;2023-06-14T04:52:39;15.70;99.90
563;DHT22;266;49.514;8.294;2023-06-14T04:55:08;15.80;99.90
563;DHT22;266;49.514;8.294;2023-06-14T04:57:37;15.80;99.90
563;DHT22;266;49.514;8.294;2023-06-14T05:00:09;15.90;99.90
563;DHT22;266;49.514;8.294;2023-06-14T05:02:39;16.00;99.90
563;DHT22;266;49.514;8.294;2023-06-14T05:05:09;16.00;99.90
563;DHT22;266;49.514;8.294;2023-06-14T05:07:37;16.10;99.90
563;DHT22;266;49.514;8.294;2023-06-14T05:10:09;16.10;99.90
563;DHT22;266;49.514;8.294;2023-06-14T05:12:38;16.20;99.90
563;DHT22;266;49.514;8.294;2023-06-14T05:15:09;16.30;99.90
563;DHT22;266;49.514;8.294;2023-06-14T05:17:40;16.40;99.90
563;DHT22;266;49.514;8.294;2023-06-14T05:20:10;16.50;99.90
563;DHT22;266;49.514;8.294;2023-06-14T05:22:39;16.60;99.90
563;DHT22;266;49.514;8.294;2023-06-14T05:25:07;16.60;99.90
563;DHT22;266;49.514;8.294;2023-06-14T05:27:35;16.70;99.90
563;DHT22;266;49.514;8.294;2023-06-14T05:30:04;16.80;99.90
563;DHT22;266;49.514;8.294;2023-06-14T05:32:35;16.80;99.90
563;DHT22;266;49.514;8.294;2023-06-14T05:35:03;16.90;99.90
563;DHT22;266;49.514;8.294;2023-06-14T05:37:32;17.00;99.90
563;DHT22;266;49.514;8.294;2023-06-14T05:40:00;17.10;99.90
563;DHT22;266;49.514;8.294;2023-06-14T05:42:29;17.20;99.90
563;DHT22;266;49.514;8.294;2023-06-14T05:44:57;17.30;99.90
563;DHT22;266;49.514;8.294;2023-06-14T05:47:26;17.30;99.90
563;DHT22;266;49.514;8.294;2023-06-14T05:49:55;17.40;99.90
563;DHT22;266;49.514;8.294;2023-06-14T05:52:23;17.50;99.90
563;DHT22;266;49.514;8.294;2023-06-14T05:54:52;17.50;99.90
563;DHT22;266;49.514;8.294;2023-06-14T05:57:19;17.70;99.90
563;DHT22;266;49.514;8.294;2023-06-14T05:59:47;17.70;99.90
563;DHT22;266;49.514;8.294;2023-06-14T06:02:17;17.80;99.90
563;DHT22;266;49.514;8.294;2023-06-14T06:04:45;17.90;99.90
563;DHT22;266;49.514;8.294;2023-06-14T06:07:14;18.00;99.90
563;DHT22;266;49.514;8.294;2023-06-14T06:09:42;18.10;99.90
563;DHT22;266;49.514;8.294;2023-06-14T06:12:11;18.20;99.90
563;DHT22;266;49.514;8.294;2023-06-14T06:14:38;18.20;99.90
563;DHT22;266;49.514;8.294;2023-06-14T06:17:07;18.30;99.90
563;DHT22;266;49.514;8.294;2023-06-14T06:19:35;18.30;99.90
563;DHT22;266;49.514;8.294;2023-06-14T06:22:03;18.40;99.90
563;DHT22;266;49.514;8.294;2023-06-14T06:24:34;18.50;99.90
563;DHT22;266;49.514;8.294;2023-06-14T06:27:02;18.50;99.90
563;DHT22;266;49.514;8.294;2023-06-14T06:29:30;18.60;99.90
563;DHT22;266;49.514;8.294;2023-06-14T06:31:58;18.60;99.90
563;DHT22;266;49.514;8.294;2023-06-14T06:34:26;18.70;99.90
563;DHT22;266;49.514;8.294;2023-06-14T06:36:54;18.70;99.90
563;DHT22;266;49.514;8.294;2023-06-14T06:39:22;18.80;99.90
563;DHT22;266;49.514;8.294;2023-06-14T06:41:52;18.80;99.90
563;DHT22;266;49.514;8.294;2023-06-14T06:44:20;18.90;99.90
563;DHT22;266;49.514;8.294;2023-06-14T06:46:47;19.00;99.90
563;DHT22;266;49.514;8.294;2023-06-14T06:49:16;19.10;99.90
563;DHT22;266;49.514;8.294;2023-06-14T06:51:59;19.20;99.90
563;DHT22;266;49.514;8.294;2023-06-14T06:54:27;19.30;99.90
563;DHT22;266;49.514;8.294;2023-06-14T06:56:57;19.40;99.90
563;DHT22;266;49.514;8.294;2023-06-14T06:59:25;19.50;99.90
563;DHT22;266;49.514;8.294;2023-06-14T07:01:53;19.60;99.90
563;DHT22;266;49.514;8.294;2023-06-14T07:04:21;19.70;99.90
563;DHT22;266;49.514;8.294;2023-06-14T07:06:49;19.70;99.90
563;DHT22;266;49.514;8.294;2023-06-14T07:09:17;19.80;99.90
563;DHT22;266;49.514;8.294;2023-06-14T07:11:47;19.80;99.90
563;DHT22;266;49.514;8.294;2023-06-14T07:14:17;19.90;99.90
563;DHT22;266;49.514;8.294;2023-06-14T07:16:44;20.00;99.90
563;DHT22;266;49.514;8.294;2023-06-14T07:19:13;20.10;99.90
563;DHT22;266;49.514;8.294;2023-06-14T07:21:41;20.10;99.90
563;DHT22;266;49.514;8.294;2023-06-14T07:24:09;20.20;99.90
563;DHT22;266;49.514;8.294;2023-06-14T07:26:37;20.40;99.90
563;DHT22;266;49.514;8.294;2023-06-14T07:29:05;20.50;99.90
563;DHT22;266;49.514;8.294;2023-06-14T07:31:35;20.50;99.90
563;DHT22;266;49.514;8.294;2023-06-14T07:34:03;20.60;99.90
563;DHT22;266;49.514;8.294;2023-06-14T07:36:31;20.70;99.90
563;DHT22;266;49.514;8.294;2023-06-14T07:38:59;20.80;99.90
563;DHT22;266;49.514;8.294;2023-06-14T07:41:29;20.80;99.90
563;DHT22;266;49.514;8.294;2023-06-14T07:43:57;20.90;99.90
563;DHT22;266;49.514;8.294;2023-06-14T07:46:25;21.00;99.90
563;DHT22;266;49.514;8.294;2023-06-14T07:48:55;21.10;99.90
563;DHT22;266;49.514;8.294;2023-06-14T07:51:23;21.20;99.90
563;DHT22;266;49.514;8.294;2023-06-14T07:53:51;21.30;99.90
563;DHT22;266;49.514;8.294;2023-06-14T07:56:19;21.30;99.90
563;DHT22;266;49.514;8.294;2023-06-14T07:58:47;21.50;99.90
563;DHT22;266;49.514;8.294;2023-06-14T08:01:15;21.60;99.90
563;DHT22;266;49.514;8.294;2023-06-14T08:03:43;21.80;99.90
563;DHT22;266;49.514;8.294;2023-06-14T08:06:13;21.90;99.90
563;DHT22;266;49.514;8.294;2023-06-14T08:08:41;22.00;99.90
563;DHT22;266;49.514;8.294;2023-06-14T08:11:09;22.10;99.90
563;DHT22;266;49.514;8.294;2023-06-14T08:13:37;22.20;99.90
563;DHT22;266;49.514;8.294;2023-06-14T08:16:05;22.40;99.90
563;DHT22;266;49.514;8.294;2023-06-14T08:18:33;22.50;99.90
563;DHT22;266;49.514;8.294;2023-06-14T08:21:01;22.60;99.90
563;DHT22;266;49.514;8.294;2023-06-14T08:23:31;22.70;99.90
563;DHT22;266;49.514;8.294;2023-06-14T08:25:59;22.90;99.90
563;DHT22;266;49.514;8.294;2023-06-14T08:28:28;23.20;99.90
563;DHT22;266;49.514;8.294;2023-06-14T08:30:56;23.40;99.90
563;DHT22;266;49.514;8.294;2023-06-14T08:33:24;23.70;99.90
563;DHT22;266;49.514;8.294;2023-06-14T08:35:53;24.00;99.90
563;DHT22;266;49.514;8.294;2023-06-14T08:38:21;24.30;99.90
563;DHT22;266;49.514;8.294;2023-06-14T08:40:51;24.50;99.90
563;DHT22;266;49.514;8.294;2023-06-14T08:43:20;24.90;99.90
563;DHT22;266;49.514;8.294;2023-06-14T08:45:48;25.10;99.90
563;DHT22;266;49.514;8.294;2023-06-14T08:48:23;25.40;99.90
563;DHT22;266;49.514;8.294;2023-06-14T08:50:53;25.70;99.90
563;DHT22;266;49.514;8.294;2023-06-14T08:53:30;25.90;99.80
563;DHT22;266;49.514;8.294;2023-06-14T08:56:05;26.10;99.90
563;DHT22;266;49.514;8.294;2023-06-14T08:58:34;26.20;99.90
563;DHT22;266;49.514;8.294;2023-06-14T09:01:03;26.40;99.90
563;DHT22;266;49.514;8.294;2023-06-14T09:03:34;26.60;98.60
563;DHT22;266;49.514;8.294;2023-06-14T09:06:08;26.80;98.60
563;DHT22;266;49.514;8.294;2023-06-14T09:08:41;27.10;98.40
563;DHT22;266;49.514;8.294;2023-06-14T09:11:13;27.10;96.30
563;DHT22;266;49.514;8.294;2023-06-14T09:13:42;27.00;95.30
563;DHT22;266;49.514;8.294;2023-06-14T09:16:10;27.10;94.70
563;DHT22;266;49.514;8.294;2023-06-14T09:18:39;27.20;93.10
563;DHT22;266;49.514;8.294;2023-06-14T09:21:11;27.40;93.50
563;DHT22;266;49.514;8.294;2023-06-14T09:23:40;27.60;93.90
563;DHT22;266;49.514;8.294;2023-06-14T09:26:12;27.50;94.50
563;DHT22;266;49.514;8.294;2023-06-14T09:28:44;27.50;94.80
563;DHT22;266;49.514;8.294;2023-06-14T09:31:13;27.70;92.10
563;DHT22;266;49.514;8.294;2023-06-14T09:33:42;27.70;92.10
563;DHT22;266;49.514;8.294;2023-06-14T09:36:16;27.80;91.80
563;DHT22;266;49.514;8.294;2023-06-14T09:38:52;27.90;91.40
563;DHT22;266;49.514;8.294;2023-06-14T09:41:30;28.20;91.50
563;DHT22;266;49.514;8.294;2023-06-14T09:43:59;28.50;91.60
563;DHT22;266;49.514;8.294;2023-06-14T09:46:34;28.50;91.20
563;DHT22;266;49.514;8.294;2023-06-14T09:49:04;28.40;90.60
563;DHT22;266;49.514;8.294;2023-06-14T09:51:33;28.60;90.00
563;DHT22;266;49.514;8.294;2023-06-14T09:54:03;28.50;92.20
563;DHT22;266;49.514;8.294;2023-06-14T09:56:35;28.60;89.10
563;DHT22;266;49.514;8.294;2023-06-14T09:59:05;28.50;90.00
563;DHT22;266;49.514;8.294;2023-06-14T10:01:36;28.40;82.00
563;DHT22;266;49.514;8.294;2023-06-14T10:04:10;28.20;82.00
563;DHT22;266;49.514;8.294;2023-06-14T10:06:40;28.60;84.40
563;DHT22;266;49.514;8.294;2023-06-14T10:09:09;28.70;80.10
563;DHT22;266;49.514;8.294;2023-06-14T10:11:39;28.90;83.40
563;DHT22;266;49.514;8.294;2023-06-14T10:14:12;29.00;81.30
563;DHT22;266;49.514;8.294;2023-06-14T10:16:45;29.10;76.00
563;DHT22;266;49.514;8.294;2023-06-14T10:19:19;29.20;77.90
563;DHT22;266;49.514;8.294;2023-06-14T10:21:57;29.30;77.70
563;DHT22;266;49.514;8.294;2023-06-14T10:24:30;29.20;78.80
563;DHT22;266;49.514;8.294;2023-06-14T10:27:01;29.30;80.40
563;DHT22;266;49.514;8.294;2023-06-14T10:29:29;29.30;76.40
563;DHT22;266;49.514;8.294;2023-06-14T10:32:00;29.10;75.90
563;DHT22;266;49.514;8.294;2023-06-14T10:34:31;29.40;72.20
563;DHT22;266;49.514;8.294;2023-06-14T10:37:03;29.30;75.00
563;DHT22;266;49.514;8.294;2023-06-14T10:39:37;29.10;73.40
563;DHT22;266;49.514;8.294;2023-06-14T10:42:07;29.20;73.60
563;DHT22;266;49.514;8.294;2023-06-14T10:44:41;29.30;68.20
563;DHT22;266;49.514;8.294;2023-06-14T10:47:13;29.50;67.70
563;DHT22;266;49.514;8.294;2023-06-14T10:49:50;29.70;61.60
563;DHT22;266;49.514;8.294;2023-06-14T10:52:22;29.70;61.60
563;DHT22;266;49.514;8.294;2023-06-14T10:55:09;29.90;61.70
563;DHT22;266;49.514;8.294;2023-06-14T10:57:42;30.00;61.80
563;DHT22;266;49.514;8.294;2023-06-14T11:00:19;29.80;61.70
563;DHT22;266;49.514;8.294;2023-06-14T11:03:17;29.90;61.80
563;DHT22;266;49.514;8.294;2023-06-14T11:05:51;30.00;61.80
563;DHT22;266;49.514;8.294;2023-06-14T11:11:22;30.10;62.10
563;DHT22;266;49.514;8.294;2023-06-14T11:13:52;29.90;61.80
563;DHT22;266;49.514;8.294;2023-06-14T11:16:20;29.80;61.70
563;DHT22;266;49.514;8.294;2023-06-14T11:18:49;29.50;61.50
563;DHT22;266;49.514;8.294;2023-06-14T11:21:17;29.70;61.60
563;DHT22;266;49.514;8.294;2023-06-14T11:23:49;29.80;61.70
563;DHT22;266;49.514;8.294;2023-06-14T11:26:24;30.30;62.10
563;DHT22;266;49.514;8.294;2023-06-14T11:28:59;30.40;62.20
563;DHT22;266;49.514;8.294;2023-06-14T11:31:28;30.50;62.20
563;DHT22;266;49.514;8.294;2023-06-14T11:33:57;30.40;62.20
563;DHT22;266;49.514;8.294;2023-06-14T11:36:27;29.90;61.80
563;DHT22;266;49.514;8.294;2023-06-14T11:39:00;29.70;61.60
563;DHT22;266;49.514;8.294;2023-06-14T11:41:36;29.70;61.60
563;DHT22;266;49.514;8.294;2023-06-14T11:44:06;29.80;61.70
563;DHT22;266;49.514;8.294;2023-06-14T11:46:35;29.60;61.60
563;DHT22;266;49.514;8.294;2023-06-14T11:49:04;29.70;61.60
563;DHT22;266;49.514;8.294;2023-06-14T11:51:34;29.90;61.80
563;DHT22;266;49.514;8.294;2023-06-14T11:54:03;30.20;62.00
563;DHT22;266;49.514;8.294;2023-06-14T11:56:31;30.50;62.30
563;DHT22;266;49.514;8.294;2023-06-14T11:58:59;30.50;62.20
563;DHT22;266;49.514;8.294;2023-06-14T12:01:29;30.30;62.10
563;DHT22;266;49.514;8.294;2023-06-14T12:03:59;29.60;61.50
563;DHT22;266;49.514;8.294;2023-06-14T12:06:28;29.60;61.80
563;DHT22;266;49.514;8.294;2023-06-14T12:09:00;29.50;61.50
563;DHT22;266;49.514;8.294;2023-06-14T12:11:32;29.60;61.60
563;DHT22;266;49.514;8.294;2023-06-14T12:14:03;29.60;61.60
563;DHT22;266;49.514;8.294;2023-06-14T12:16:34;29.20;61.30
563;DHT22;266;49.514;8.294;2023-06-14T12:19:14;28.90;61.00
563;DHT22;266;49.514;8.294;2023-06-14T12:21:43;28.40;60.60
563;DHT22;266;49.514;8.294;2023-06-14T12:24:13;28.60;60.90
563;DHT22;266;49.514;8.294;2023-06-14T12:26:42;29.10;61.30
563;DHT22;266;49.514;8.294;2023-06-14T12:29:10;29.50;61.50
563;DHT22;266;49.514;8.294;2023-06-14T12:31:41;29.70;61.60
563;DHT22;266;49.514;8.294;2023-06-14T12:34:09;29.90;61.80
563;DHT22;266;49.514;8.294;2023-06-14T12:36:38;30.20;62.20
563;DHT22;266;49.514;8.294;2023-06-14T12:39:10;30.40;62.20
563;DHT22;266;49.514;8.294;2023-06-14T12:41:38;30.60;62.30
563;DHT22;266;49.514;8.294;2023-06-14T12:44:08;30.50;62.20
563;DHT22;266;49.514;8.294;2023-06-14T12:46:36;30.90;62.50
563;DHT22;266;49.514;8.294;2023-06-14T12:49:08;31.20;63.00
563;DHT22;266;49.514;8.294;2023-06-14T12:51:37;31.30;62.90
563;DHT22;266;49.514;8.294;2023-06-14T12:54:06;31.50;63.00
563;DHT22;266;49.514;8.294;2023-06-14T12:56:34;31.80;63.20
563;DHT22;266;49.514;8.294;2023-06-14T12:59:02;31.70;63.10
563;DHT22;266;49.514;8.294;2023-06-14T13:01:30;31.00;62.60
563;DHT22;266;49.514;8.294;2023-06-14T13:03:58;30.30;62.10
563;DHT22;266;49.514;8.294;2023-06-14T13:06:27;29.70;62.00
563;DHT22;266;49.514;8.294;2023-06-14T13:08:56;29.50;61.60
563;DHT22;266;49.514;8.294;2023-06-14T13:11:25;29.30;61.50
563;DHT22;266;49.514;8.294;2023-06-14T13:13:53;29.30;61.30
563;DHT22;266;49.514;8.294;2023-06-14T13:16:21;29.60;61.50
563;DHT22;266;49.514;8.294;2023-06-14T13:18:49;29.60;61.50
563;DHT22;266;49.514;8.294;2023-06-14T13:21:17;29.30;65.70
563;DHT22;266;49.514;8.294;2023-06-14T13:23:46;29.30;61.30
563;DHT22;266;49.514;8.294;2023-06-14T13:26:14;29.50;61.40
563;DHT22;266;49.514;8.294;2023-06-14T13:28:45;29.90;61.80
563;DHT22;266;49.514;8.294;2023-06-14T13:31:13;30.30;62.10
563;DHT22;266;49.514;8.294;2023-06-14T13:33:41;30.70;62.40
563;DHT22;266;49.514;8.294;2023-06-14T13:36:09;30.90;62.50
563;DHT22;266;49.514;8.294;2023-06-14T13:38:37;31.20;62.70
563;DHT22;266;49.514;8.294;2023-06-14T13:41:07;31.50;60.40
563;DHT22;266;49.514;8.294;2023-06-14T13:43:35;31.20;62.90
563;DHT22;266;49.514;8.294;2023-06-14T13:46:02;30.70;62.40
563;DHT22;266;49.514;8.294;2023-06-14T13:48:48;29.60;61.50
563;DHT22;266;49.514;8.294;2023-06-14T13:51:17;28.50;60.70
563;DHT22;266;49.514;8.294;2023-06-14T13:53:46;28.10;60.40
563;DHT22;266;49.514;8.294;2023-06-14T13:56:33;28.50;60.80
563;DHT22;266;49.514;8.294;2023-06-14T13:59:01;29.20;61.20
563;DHT22;266;49.514;8.294;2023-06-14T14:01:29;29.70;61.80
563;DHT22;266;49.514;8.294;2023-06-14T14:03:57;29.70;61.60
563;DHT22;266;49.514;8.294;2023-06-14T14:06:44;29.70;61.60
563;DHT22;266;49.514;8.294;2023-06-14T14:09:30;29.80;61.70
563;DHT22;266;49.514;8.294;2023-06-14T14:12:00;29.90;61.70
563;DHT22;266;49.514;8.294;2023-06-14T14:14:45;29.30;61.30
563;DHT22;266;49.514;8.294;2023-06-14T14:17:13;29.50;61.60
563;DHT22;266;49.514;8.294;2023-06-14T14:19:41;29.70;61.90
563;DHT22;266;49.514;8.294;2023-06-14T14:22:27;29.80;61.70
563;DHT22;266;49.514;8.294;2023-06-14T14:24:55;29.90;61.80
563;DHT22;266;49.514;8.294;2023-06-14T14:27:42;30.20;62.00
563;DHT22;266;49.514;8.294;2023-06-14T14:30:27;30.40;62.20
563;DHT22;266;49.514;8.294;2023-06-14T14:32:55;30.70;62.40
563;DHT22;266;49.514;8.294;2023-06-14T14:35:24;30.80;62.40
563;DHT22;266;49.514;8.294;2023-06-14T14:37:57;30.90;62.50
563;DHT22;266;49.514;8.294;2023-06-14T14:40:25;31.10;62.70
563;DHT22;266;49.514;8.294;2023-06-14T14:42:54;31.10;62.90
563;DHT22;266;49.514;8.294;2023-06-14T14:45:24;31.00;62.60
563;DHT22;266;49.514;8.294;2023-06-14T14:47:51;30.80;62.50
563;DHT22;266;49.514;8.294;2023-06-14T14:50:22;30.60;62.40
563;DHT22;266;49.514;8.294;2023-06-14T14:52:50;30.60;62.30
563;DHT22;266;49.514;8.294;2023-06-14T14:55:18;30.60;62.30
563;DHT22;266;49.514;8.294;2023-06-14T14:57:46;30.40;62.20
563;DHT22;266;49.514;8.294;2023-06-14T15:00:16;30.40;62.20
563;DHT22;266;49.514;8.294;2023-06-14T15:02:45;30.30;62.10
563;DHT22;266;49.514;8.294;2023-06-14T15:05:13;30.40;62.20
563;DHT22;266;49.514;8.294;2023-06-14T15:07:41;30.20;62.10
563;DHT22;266;49.514;8.294;2023-06-14T15:10:10;29.90;61.80
563;DHT22;266;49.514;8.294;2023-06-14T15:12:38;29.80;61.70
563;DHT22;266;49.514;8.294;2023-06-14T15:15:06;29.80;61.70
563;DHT22;266;49.514;8.294;2023-06-14T15:17:37;29.90;61.80
563;DHT22;266;49.514;8.294;2023-06-14T15:20:07;30.00;61.80
563;DHT22;266;49.514;8.294;2023-06-14T15:22:35;30.10;61.90
563;DHT22;266;49.514;8.294;2023-06-14T15:25:03;30.00;61.80
563;DHT22;266;49.514;8.294;2023-06-14T15:27:31;30.00;61.80
563;DHT22;266;49.514;8.294;2023-06-14T15:29:59;30.20;62.00
563;DHT22;266;49.514;8.294;2023-06-14T15:32:28;30.20;62.00
563;DHT22;266;49.514;8.294;2023-06-14T15:34:57;30.30;62.10
563;DHT22;266;49.514;8.294;2023-06-14T15:37:25;30.10;62.00
563;DHT22;266;49.514;8.294;2023-06-14T15:39:53;29.70;61.60
563;DHT22;266;49.514;8.294;2023-06-14T15:42:21;29.00;61.30
563;DHT22;266;49.514;8.294;2023-06-14T15:44:49;28.20;60.60
563;DHT22;266;49.514;8.294;2023-06-14T15:47:17;27.80;60.40
563;DHT22;266;49.514;8.294;2023-06-14T15:49:45;27.60;60.10
563;DHT22;266;49.514;8.294;2023-06-14T15:52:14;27.10;59.80
563;DHT22;266;49.514;8.294;2023-06-14T15:54:42;26.80;59.70
563;DHT22;266;49.514;8.294;2023-06-14T15:57:10;26.70;59.50
563;DHT22;266;49.514;8.294;2023-06-14T15:59:38;26.70;59.50
563;DHT22;266;49.514;8.294;2023-06-14T16:02:06;26.80;59.50
563;DHT22;266;49.514;8.294;2023-06-14T16:04:34;27.10;59.90
563;DHT22;266;49.514;8.294;2023-06-14T16:07:02;27.20;59.80
563;DHT22;266;49.514;8.294;2023-06-14T16:09:31;27.30;59.90
563;DHT22;266;49.514;8.294;2023-06-14T16:12:00;27.70;60.10
563;DHT22;266;49.514;8.294;2023-06-14T16:14:28;27.60;60.10
563;DHT22;266;49.514;8.294;2023-06-14T16:16:57;27.70;60.20
563;DHT22;266;49.514;8.294;2023-06-14T16:19:28;27.70;60.20
563;DHT22;266;49.514;8.294;2023-06-14T16:21:56;27.80;60.40
563;DHT22;266;49.514;8.294;2023-06-14T16:24:24;27.90;60.50
563;DHT22;266;49.514;8.294;2023-06-14T16:26:53;27.70;60.20
563;DHT22;266;49.514;8.294;2023-06-14T16:29:21;27.50;60.00
563;DHT22;266;49.514;8.294;2023-06-14T16:31:49;27.30;59.90
563;DHT22;266;49.514;8.294;2023-06-14T16:34:17;27.10;59.90
563;DHT22;266;49.514;8.294;2023-06-14T16:36:46;27.00;59.70
563;DHT22;266;49.514;8.294;2023-06-14T16:39:13;27.00;59.70
563;DHT22;266;49.514;8.294;2023-06-14T16:41:41;26.90;59.80
563;DHT22;266;49.514;8.294;2023-06-14T16:44:11;26.60;59.40
563;DHT22;266;49.514;8.294;2023-06-14T16:46:41;26.20;59.30
563;DHT22;266;49.514;8.294;2023-06-14T16:49:09;25.70;58.90
563;DHT22;266;49.514;8.294;2023-06-14T16:51:37;25.40;58.60
563;DHT22;266;49.514;8.294;2023-06-14T16:54:05;25.20;58.50